sensor_id;sensor_type;location;lat;lon;timestamp;P1;durP1;ratioP1;P2;durP2;ratioP2
1995;SDS011;38556;47.068;15.408;2022-08-27T00:02:15;194.93;;;182.97;;
1995;SDS011;38556;47.068;15.408;2022-08-27T00:04:44;199.77;;;187.17;;
1995;SDS011;38556;47.068;15.408;2022-08-27T00:07:13;201.23;;;188.73;;
1995;SDS011;38556;47.068;15.408;2022-08-27T00:09:41;207.97;;;195.37;;
1995;SDS011;38556;47.068;15.408;2022-08-27T00:12:09;201.67;;;189.10;;
1995;SDS011;38556;47.068;15.408;2022-08-27T00:14:37;203.20;;;190.67;;
1995;SDS011;38556;47.068;15.408;2022-08-27T00:17:05;211.30;;;198.53;;
1995;SDS011;38556;47.068;15.408;2022-08-27T00:19:33;210.13;;;197.53;;
1995;SDS011;38556;47.068;15.408;2022-08-27T00:22:04;215.37;;;202.27;;
1995;SDS011;38556;47.068;15.408;2022-08-27T00:24:32;202.60;;;190.00;;
1995;SDS011;38556;47.068;15.408;2022-08-27T00:27:00;210.90;;;197.90;;
1995;SDS011;38556;47.068;15.408;2022-08-27T00:29:28;205.77;;;193.17;;
1995;SDS011;38556;47.068;15.408;2022-08-27T00:31:56;208.40;;;196.13;;
1995;SDS011;38556;47.068;15.408;2022-08-27T00:34:24;212.43;;;199.43;;
1995;SDS011;38556;47.068;15.408;2022-08-27T00:36:52;212.63;;;199.33;;
1995;SDS011;38556;47.068;15.408;2022-08-27T00:39:20;215.03;;;201.90;;
1995;SDS011;38556;47.068;15.408;2022-08-27T00:41:48;197.93;;;185.07;;
1995;SDS011;38556;47.068;15.408;2022-08-27T00:44:15;205.97;;;193.00;;
1995;SDS011;38556;47.068;15.408;2022-08-27T00:46:45;208.50;;;195.40;;
1995;SDS011;38556;47.068;15.408;2022-08-27T00:49:16;204.77;;;191.57;;
1995;SDS011;38556;47.068;15.408;2022-08-27T00:51:48;206.03;;;193.00;;
1995;SDS011;38556;47.068;15.408;2022-08-27T00:54:20;204.60;;;192.10;;
1995;SDS011;38556;47.068;15.408;2022-08-27T00:56:49;201.90;;;189.50;;
1995;SDS011;38556;47.068;15.408;2022-08-27T00:59:17;200.60;;;188.00;;
1995;SDS011;38556;47.068;15.408;2022-08-27T01:01:47;206.80;;;193.97;;
1995;SDS011;38556;47.068;15.408;2022-08-27T01:04:31;201.70;;;189.10;;
1995;SDS011;38556;47.068;15.408;2022-08-27T01:07:01;199.07;;;186.73;;
1995;SDS011;38556;47.068;15.408;2022-08-27T01:09:30;202.87;;;190.73;;
1995;SDS011;38556;47.068;15.408;2022-08-27T01:11:58;207.93;;;195.53;;
1995;SDS011;38556;47.068;15.408;2022-08-27T01:14:26;210.90;;;198.20;;
1995;SDS011;38556;47.068;15.408;2022-08-27T01:16:54;205.20;;;192.60;;
1995;SDS011;38556;47.068;15.408;2022-08-27T01:19:25;212.60;;;200.00;;
1995;SDS011;38556;47.068;15.408;2022-08-27T01:21:56;199.90;;;187.17;;
1995;SDS011;38556;47.068;15.408;2022-08-27T01:24:32;195.93;;;183.40;;
1995;SDS011;38556;47.068;15.408;2022-08-27T01:27:03;196.67;;;184.20;;
1995;SDS011;38556;47.068;15.408;2022-08-27T01:29:34;202.57;;;189.63;;
1995;SDS011;38556;47.068;15.408;2022-08-27T01:32:07;189.97;;;177.50;;
1995;SDS011;38556;47.068;15.408;2022-08-27T01:34:37;200.07;;;187.77;;
1995;SDS011;38556;47.068;15.408;2022-08-27T01:37:04;195.67;;;183.77;;
1995;SDS011;38556;47.068;15.408;2022-08-27T01:39:34;197.80;;;185.77;;
1995;SDS011;38556;47.068;15.408;2022-08-27T01:42:04;197.90;;;185.70;;
1995;SDS011;38556;47.068;15.408;2022-08-27T01:44:46;199.57;;;187.27;;
1995;SDS011;38556;47.068;15.408;2022-08-27T01:47:14;206.70;;;194.40;;
1995;SDS011;38556;47.068;15.408;2022-08-27T01:49:43;209.97;;;197.37;;
1995;SDS011;38556;47.068;15.408;2022-08-27T01:52:11;193.30;;;181.30;;
1995;SDS011;38556;47.068;15.408;2022-08-27T01:54:44;209.37;;;196.50;;
1995;SDS011;38556;47.068;15.408;2022-08-27T01:57:12;199.40;;;186.97;;
1995;SDS011;38556;47.068;15.408;2022-08-27T01:59:41;196.53;;;184.27;;
1995;SDS011;38556;47.068;15.408;2022-08-27T02:02:08;194.97;;;181.90;;
1995;SDS011;38556;47.068;15.408;2022-08-27T02:04:37;195.27;;;183.80;;
1995;SDS011;38556;47.068;15.408;2022-08-27T02:07:06;229.10;;;215.13;;
1995;SDS011;38556;47.068;15.408;2022-08-27T02:09:34;234.50;;;219.60;;
1995;SDS011;38556;47.068;15.408;2022-08-27T02:12:03;241.03;;;225.83;;
1995;SDS011;38556;47.068;15.408;2022-08-27T02:14:31;234.17;;;219.63;;
1995;SDS011;38556;47.068;15.408;2022-08-27T02:16:58;243.40;;;228.40;;
1995;SDS011;38556;47.068;15.408;2022-08-27T02:19:26;251.57;;;235.83;;
1995;SDS011;38556;47.068;15.408;2022-08-27T02:21:54;240.77;;;225.67;;
1995;SDS011;38556;47.068;15.408;2022-08-27T02:24:25;239.40;;;224.27;;
1995;SDS011;38556;47.068;15.408;2022-08-27T02:26:53;241.37;;;226.27;;
1995;SDS011;38556;47.068;15.408;2022-08-27T02:29:21;234.00;;;219.43;;
1995;SDS011;38556;47.068;15.408;2022-08-27T02:31:49;235.07;;;220.23;;
1995;SDS011;38556;47.068;15.408;2022-08-27T02:34:16;229.43;;;214.93;;
1995;SDS011;38556;47.068;15.408;2022-08-27T02:36:44;234.53;;;219.83;;
1995;SDS011;38556;47.068;15.408;2022-08-27T02:39:12;232.93;;;217.63;;
1995;SDS011;38556;47.068;15.408;2022-08-27T02:41:39;226.60;;;211.60;;
1995;SDS011;38556;47.068;15.408;2022-08-27T02:44:06;232.50;;;217.20;;
1995;SDS011;38556;47.068;15.408;2022-08-27T02:46:37;230.97;;;215.63;;
1995;SDS011;38556;47.068;15.408;2022-08-27T02:49:04;235.37;;;220.33;;
1995;SDS011;38556;47.068;15.408;2022-08-27T02:51:34;242.53;;;227.30;;
1995;SDS011;38556;47.068;15.408;2022-08-27T02:54:01;239.53;;;224.33;;
1995;SDS011;38556;47.068;15.408;2022-08-27T02:56:29;235.93;;;220.67;;
1995;SDS011;38556;47.068;15.408;2022-08-27T02:58:56;241.90;;;226.80;;
1995;SDS011;38556;47.068;15.408;2022-08-27T03:01:24;243.77;;;228.10;;
1995;SDS011;38556;47.068;15.408;2022-08-27T03:03:53;234.53;;;219.33;;
1995;SDS011;38556;47.068;15.408;2022-08-27T03:06:22;236.70;;;221.43;;
1995;SDS011;38556;47.068;15.408;2022-08-27T03:08:49;236.57;;;221.13;;
1995;SDS011;38556;47.068;15.408;2022-08-27T03:11:18;236.70;;;221.80;;
1995;SDS011;38556;47.068;15.408;2022-08-27T03:13:47;229.43;;;214.60;;
1995;SDS011;38556;47.068;15.408;2022-08-27T03:16:14;235.40;;;220.17;;
1995;SDS011;38556;47.068;15.408;2022-08-27T03:18:41;238.10;;;222.30;;
1995;SDS011;38556;47.068;15.408;2022-08-27T03:21:14;235.60;;;220.40;;
1995;SDS011;38556;47.068;15.408;2022-08-27T03:23:42;233.80;;;218.90;;
1995;SDS011;38556;47.068;15.408;2022-08-27T03:26:10;229.67;;;214.93;;
1995;SDS011;38556;47.068;15.408;2022-08-27T03:28:37;242.23;;;226.83;;
1995;SDS011;38556;47.068;15.408;2022-08-27T03:31:06;245.03;;;229.83;;
1995;SDS011;38556;47.068;15.408;2022-08-27T03:33:38;230.50;;;215.80;;
1995;SDS011;38556;47.068;15.408;2022-08-27T03:36:07;237.43;;;222.33;;
1995;SDS011;38556;47.068;15.408;2022-08-27T03:38:36;241.57;;;226.70;;
1995;SDS011;38556;47.068;15.408;2022-08-27T03:41:04;229.50;;;214.97;;
1995;SDS011;38556;47.068;15.408;2022-08-27T03:43:31;231.53;;;216.67;;
1995;SDS011;38556;47.068;15.408;2022-08-27T03:46:00;234.27;;;218.97;;
1995;SDS011;38556;47.068;15.408;2022-08-27T03:48:28;237.90;;;222.33;;
1995;SDS011;38556;47.068;15.408;2022-08-27T03:50:56;223.10;;;208.80;;
1995;SDS011;38556;47.068;15.408;2022-08-27T03:53:24;233.73;;;218.97;;
1995;SDS011;38556;47.068;15.408;2022-08-27T03:55:53;237.23;;;222.37;;
1995;SDS011;38556;47.068;15.408;2022-08-27T03:58:20;240.00;;;225.30;;
1995;SDS011;38556;47.068;15.408;2022-08-27T04:00:47;226.63;;;212.33;;
1995;SDS011;38556;47.068;15.408;2022-08-27T04:03:14;241.47;;;226.33;;
1995;SDS011;38556;47.068;15.408;2022-08-27T04:05:42;234.10;;;219.20;;
1995;SDS011;38556;47.068;15.408;2022-08-27T04:08:09;235.67;;;220.47;;
1995;SDS011;38556;47.068;15.408;2022-08-27T04:10:39;238.00;;;222.43;;
1995;SDS011;38556;47.068;15.408;2022-08-27T04:13:06;228.20;;;213.67;;
1995;SDS011;38556;47.068;15.408;2022-08-27T04:15:34;225.07;;;210.83;;
1995;SDS011;38556;47.068;15.408;2022-08-27T04:18:01;234.07;;;219.23;;
1995;SDS011;38556;47.068;15.408;2022-08-27T04:20:30;225.00;;;210.60;;
1995;SDS011;38556;47.068;15.408;2022-08-27T04:22:57;239.07;;;223.80;;
1995;SDS011;38556;47.068;15.408;2022-08-27T04:25:24;236.80;;;222.00;;
1995;SDS011;38556;47.068;15.408;2022-08-27T04:27:53;228.63;;;214.00;;
1995;SDS011;38556;47.068;15.408;2022-08-27T04:30:21;236.83;;;221.60;;
1995;SDS011;38556;47.068;15.408;2022-08-27T04:32:49;241.50;;;226.40;;
1995;SDS011;38556;47.068;15.408;2022-08-27T04:35:16;239.10;;;224.10;;
1995;SDS011;38556;47.068;15.408;2022-08-27T04:37:44;236.13;;;221.87;;
1995;SDS011;38556;47.068;15.408;2022-08-27T04:40:12;233.33;;;219.13;;
1995;SDS011;38556;47.068;15.408;2022-08-27T04:42:39;234.37;;;220.07;;
1995;SDS011;38556;47.068;15.408;2022-08-27T04:45:09;236.47;;;222.57;;
1995;SDS011;38556;47.068;15.408;2022-08-27T04:47:36;226.27;;;213.37;;
1995;SDS011;38556;47.068;15.408;2022-08-27T04:50:04;209.73;;;197.33;;
1995;SDS011;38556;47.068;15.408;2022-08-27T04:52:32;222.90;;;209.80;;
1995;SDS011;38556;47.068;15.408;2022-08-27T04:54:59;235.43;;;221.37;;
1995;SDS011;38556;47.068;15.408;2022-08-27T04:57:27;236.13;;;222.50;;
1995;SDS011;38556;47.068;15.408;2022-08-27T04:59:54;235.83;;;222.57;;
1995;SDS011;38556;47.068;15.408;2022-08-27T05:02:23;227.20;;;213.60;;
1995;SDS011;38556;47.068;15.408;2022-08-27T05:04:51;246.57;;;232.50;;
1995;SDS011;38556;47.068;15.408;2022-08-27T05:07:19;233.63;;;220.33;;
1995;SDS011;38556;47.068;15.408;2022-08-27T05:09:46;219.07;;;206.10;;
1995;SDS011;38556;47.068;15.408;2022-08-27T05:12:14;224.93;;;211.53;;
1995;SDS011;38556;47.068;15.408;2022-08-27T05:14:41;215.17;;;201.93;;
1995;SDS011;38556;47.068;15.408;2022-08-27T05:17:09;221.77;;;208.60;;
1995;SDS011;38556;47.068;15.408;2022-08-27T05:19:37;218.70;;;206.03;;
1995;SDS011;38556;47.068;15.408;2022-08-27T05:22:05;230.00;;;216.33;;
1995;SDS011;38556;47.068;15.408;2022-08-27T05:24:32;230.00;;;216.50;;
1995;SDS011;38556;47.068;15.408;2022-08-27T05:27:01;234.50;;;220.70;;
1995;SDS011;38556;47.068;15.408;2022-08-27T05:29:28;233.57;;;220.17;;
1995;SDS011;38556;47.068;15.408;2022-08-27T05:31:56;237.53;;;224.10;;
1995;SDS011;38556;47.068;15.408;2022-08-27T05:34:23;229.53;;;216.63;;
1995;SDS011;38556;47.068;15.408;2022-08-27T05:36:52;221.73;;;209.40;;
1995;SDS011;38556;47.068;15.408;2022-08-27T05:39:19;236.37;;;223.13;;
1995;SDS011;38556;47.068;15.408;2022-08-27T05:41:47;225.13;;;212.07;;
1995;SDS011;38556;47.068;15.408;2022-08-27T05:44:16;236.70;;;223.60;;
1995;SDS011;38556;47.068;15.408;2022-08-27T05:46:44;238.33;;;224.83;;
1995;SDS011;38556;47.068;15.408;2022-08-27T05:49:11;236.37;;;222.77;;
1995;SDS011;38556;47.068;15.408;2022-08-27T05:51:39;233.87;;;220.23;;
1995;SDS011;38556;47.068;15.408;2022-08-27T05:54:08;238.70;;;224.90;;
1995;SDS011;38556;47.068;15.408;2022-08-27T05:56:41;237.63;;;224.03;;
1995;SDS011;38556;47.068;15.408;2022-08-27T05:59:08;238.27;;;224.87;;
1995;SDS011;38556;47.068;15.408;2022-08-27T06:01:55;233.80;;;219.70;;
1995;SDS011;38556;47.068;15.408;2022-08-27T06:04:23;235.53;;;222.47;;
1995;SDS011;38556;47.068;15.408;2022-08-27T06:06:51;231.97;;;218.47;;
1995;SDS011;38556;47.068;15.408;2022-08-27T06:09:22;227.37;;;214.67;;
1995;SDS011;38556;47.068;15.408;2022-08-27T06:11:53;237.27;;;223.77;;
1995;SDS011;38556;47.068;15.408;2022-08-27T06:14:22;240.30;;;226.53;;
1995;SDS011;38556;47.068;15.408;2022-08-27T06:16:49;240.63;;;226.73;;
1995;SDS011;38556;47.068;15.408;2022-08-27T06:19:16;240.53;;;226.63;;
1995;SDS011;38556;47.068;15.408;2022-08-27T06:21:44;253.87;;;239.50;;
1995;SDS011;38556;47.068;15.408;2022-08-27T06:24:12;238.63;;;225.47;;
1995;SDS011;38556;47.068;15.408;2022-08-27T06:26:41;239.97;;;226.87;;
1995;SDS011;38556;47.068;15.408;2022-08-27T06:29:09;230.40;;;217.67;;
1995;SDS011;38556;47.068;15.408;2022-08-27T06:31:38;232.20;;;218.90;;
1995;SDS011;38556;47.068;15.408;2022-08-27T06:34:07;241.80;;;227.90;;
1995;SDS011;38556;47.068;15.408;2022-08-27T06:36:37;225.57;;;212.40;;
1995;SDS011;38556;47.068;15.408;2022-08-27T06:39:07;240.83;;;226.90;;
1995;SDS011;38556;47.068;15.408;2022-08-27T06:41:39;237.23;;;223.37;;
1995;SDS011;38556;47.068;15.408;2022-08-27T06:44:08;232.37;;;218.93;;
1995;SDS011;38556;47.068;15.408;2022-08-27T06:46:37;232.90;;;219.80;;
1995;SDS011;38556;47.068;15.408;2022-08-27T06:49:05;253.37;;;239.13;;
1995;SDS011;38556;47.068;15.408;2022-08-27T06:51:34;250.20;;;236.03;;
1995;SDS011;38556;47.068;15.408;2022-08-27T06:54:03;245.60;;;231.53;;
1995;SDS011;38556;47.068;15.408;2022-08-27T06:56:33;243.90;;;230.07;;
1995;SDS011;38556;47.068;15.408;2022-08-27T06:59:02;245.07;;;231.50;;
1995;SDS011;38556;47.068;15.408;2022-08-27T07:01:33;245.90;;;231.73;;
1995;SDS011;38556;47.068;15.408;2022-08-27T07:04:03;241.40;;;228.03;;
1995;SDS011;38556;47.068;15.408;2022-08-27T07:06:33;238.43;;;224.90;;
1995;SDS011;38556;47.068;15.408;2022-08-27T07:09:01;233.73;;;220.50;;
1995;SDS011;38556;47.068;15.408;2022-08-27T07:11:30;230.30;;;216.90;;
1995;SDS011;38556;47.068;15.408;2022-08-27T07:13:57;235.70;;;222.13;;
1995;SDS011;38556;47.068;15.408;2022-08-27T07:16:27;239.83;;;226.30;;
1995;SDS011;38556;47.068;15.408;2022-08-27T07:18:55;247.73;;;234.03;;
1995;SDS011;38556;47.068;15.408;2022-08-27T07:21:24;237.27;;;223.30;;
1995;SDS011;38556;47.068;15.408;2022-08-27T07:23:53;245.17;;;231.40;;
1995;SDS011;38556;47.068;15.408;2022-08-27T07:26:23;229.47;;;216.40;;
1995;SDS011;38556;47.068;15.408;2022-08-27T07:28:51;228.80;;;215.67;;
1995;SDS011;38556;47.068;15.408;2022-08-27T07:31:19;230.37;;;217.20;;
1995;SDS011;38556;47.068;15.408;2022-08-27T07:33:49;227.50;;;214.87;;
1995;SDS011;38556;47.068;15.408;2022-08-27T07:36:17;232.67;;;219.67;;
1995;SDS011;38556;47.068;15.408;2022-08-27T07:38:44;237.13;;;223.63;;
1995;SDS011;38556;47.068;15.408;2022-08-27T07:41:12;227.33;;;214.40;;
1995;SDS011;38556;47.068;15.408;2022-08-27T07:43:39;234.30;;;221.03;;
1995;SDS011;38556;47.068;15.408;2022-08-27T07:46:24;237.63;;;224.40;;
1995;SDS011;38556;47.068;15.408;2022-08-27T07:48:53;233.13;;;219.93;;
1995;SDS011;38556;47.068;15.408;2022-08-27T07:51:23;226.20;;;212.97;;
1995;SDS011;38556;47.068;15.408;2022-08-27T07:53:52;220.30;;;207.60;;
1995;SDS011;38556;47.068;15.408;2022-08-27T07:56:21;220.70;;;207.97;;
1995;SDS011;38556;47.068;15.408;2022-08-27T07:58:49;225.63;;;212.30;;
1995;SDS011;38556;47.068;15.408;2022-08-27T08:01:16;237.70;;;224.20;;
1995;SDS011;38556;47.068;15.408;2022-08-27T08:03:43;237.07;;;223.37;;
1995;SDS011;38556;47.068;15.408;2022-08-27T08:06:13;234.97;;;221.97;;
1995;SDS011;38556;47.068;15.408;2022-08-27T08:08:41;227.33;;;214.27;;
1995;SDS011;38556;47.068;15.408;2022-08-27T08:11:10;240.03;;;226.87;;
1995;SDS011;38556;47.068;15.408;2022-08-27T08:13:40;235.60;;;222.50;;
1995;SDS011;38556;47.068;15.408;2022-08-27T08:16:08;234.73;;;221.30;;
1995;SDS011;38556;47.068;15.408;2022-08-27T08:18:36;251.90;;;238.30;;
1995;SDS011;38556;47.068;15.408;2022-08-27T08:21:04;250.17;;;235.90;;
1995;SDS011;38556;47.068;15.408;2022-08-27T08:23:34;242.40;;;229.20;;
1995;SDS011;38556;47.068;15.408;2022-08-27T08:26:04;242.83;;;228.90;;
1995;SDS011;38556;47.068;15.408;2022-08-27T08:28:32;227.73;;;214.90;;
1995;SDS011;38556;47.068;15.408;2022-08-27T08:31:00;237.20;;;224.40;;
1995;SDS011;38556;47.068;15.408;2022-08-27T08:33:28;236.07;;;223.30;;
1995;SDS011;38556;47.068;15.408;2022-08-27T08:36:01;226.13;;;213.10;;
1995;SDS011;38556;47.068;15.408;2022-08-27T08:38:30;242.83;;;229.63;;
1995;SDS011;38556;47.068;15.408;2022-08-27T08:40:58;249.23;;;235.47;;
1995;SDS011;38556;47.068;15.408;2022-08-27T08:43:29;238.37;;;224.90;;
1995;SDS011;38556;47.068;15.408;2022-08-27T08:46:01;240.20;;;226.80;;
1995;SDS011;38556;47.068;15.408;2022-08-27T08:48:34;227.10;;;213.87;;
1995;SDS011;38556;47.068;15.408;2022-08-27T08:51:09;235.43;;;222.17;;
1995;SDS011;38556;47.068;15.408;2022-08-27T08:53:45;220.97;;;208.47;;
1995;SDS011;38556;47.068;15.408;2022-08-27T08:56:20;230.77;;;217.60;;
1995;SDS011;38556;47.068;15.408;2022-08-27T08:58:52;226.43;;;213.40;;
1995;SDS011;38556;47.068;15.408;2022-08-27T09:01:24;240.63;;;226.83;;
1995;SDS011;38556;47.068;15.408;2022-08-27T09:03:54;228.10;;;215.10;;
1995;SDS011;38556;47.068;15.408;2022-08-27T09:06:30;238.00;;;225.00;;
1995;SDS011;38556;47.068;15.408;2022-08-27T09:09:07;220.57;;;207.67;;
1995;SDS011;38556;47.068;15.408;2022-08-27T09:11:49;214.07;;;201.50;;
1995;SDS011;38556;47.068;15.408;2022-08-27T09:14:30;225.13;;;212.43;;
1995;SDS011;38556;47.068;15.408;2022-08-27T09:17:01;230.87;;;217.63;;
1995;SDS011;38556;47.068;15.408;2022-08-27T09:19:30;239.77;;;226.47;;
1995;SDS011;38556;47.068;15.408;2022-08-27T09:21:59;233.53;;;220.53;;
1995;SDS011;38556;47.068;15.408;2022-08-27T09:24:35;217.77;;;204.53;;
1995;SDS011;38556;47.068;15.408;2022-08-27T09:27:11;214.27;;;201.60;;
1995;SDS011;38556;47.068;15.408;2022-08-27T09:29:45;215.37;;;202.67;;
1995;SDS011;38556;47.068;15.408;2022-08-27T09:32:13;224.30;;;211.10;;
1995;SDS011;38556;47.068;15.408;2022-08-27T09:34:42;232.60;;;219.47;;
1995;SDS011;38556;47.068;15.408;2022-08-27T09:37:12;234.70;;;221.23;;
1995;SDS011;38556;47.068;15.408;2022-08-27T09:39:44;232.33;;;219.63;;
1995;SDS011;38556;47.068;15.408;2022-08-27T09:42:31;233.20;;;219.40;;
1995;SDS011;38556;47.068;15.408;2022-08-27T09:45:05;214.10;;;201.60;;
1995;SDS011;38556;47.068;15.408;2022-08-27T09:47:40;222.63;;;209.60;;
1995;SDS011;38556;47.068;15.408;2022-08-27T09:50:10;226.03;;;213.10;;
1995;SDS011;38556;47.068;15.408;2022-08-27T09:52:43;244.17;;;230.23;;
1995;SDS011;38556;47.068;15.408;2022-08-27T09:55:24;226.00;;;212.80;;
1995;SDS011;38556;47.068;15.408;2022-08-27T09:57:57;220.00;;;207.60;;
1995;SDS011;38556;47.068;15.408;2022-08-27T10:00:27;220.73;;;207.97;;
1995;SDS011;38556;47.068;15.408;2022-08-27T10:03:01;220.13;;;206.83;;
1995;SDS011;38556;47.068;15.408;2022-08-27T10:05:30;213.97;;;200.77;;
1995;SDS011;38556;47.068;15.408;2022-08-27T10:08:02;232.70;;;219.83;;
1995;SDS011;38556;47.068;15.408;2022-08-27T10:10:38;227.03;;;214.13;;
1995;SDS011;38556;47.068;15.408;2022-08-27T10:13:15;226.30;;;213.40;;
1995;SDS011;38556;47.068;15.408;2022-08-27T10:15:48;234.17;;;220.70;;
1995;SDS011;38556;47.068;15.408;2022-08-27T10:18:24;243.17;;;230.20;;
1995;SDS011;38556;47.068;15.408;2022-08-27T10:21:01;220.67;;;208.17;;
1995;SDS011;38556;47.068;15.408;2022-08-27T10:23:34;222.43;;;209.03;;
1995;SDS011;38556;47.068;15.408;2022-08-27T10:26:08;236.33;;;222.97;;
1995;SDS011;38556;47.068;15.408;2022-08-27T10:28:52;226.87;;;214.13;;
1995;SDS011;38556;47.068;15.408;2022-08-27T10:31:30;226.73;;;213.90;;
1995;SDS011;38556;47.068;15.408;2022-08-27T10:34:10;240.07;;;226.27;;
1995;SDS011;38556;47.068;15.408;2022-08-27T10:36:49;241.60;;;227.90;;
1995;SDS011;38556;47.068;15.408;2022-08-27T10:39:29;244.50;;;230.37;;
1995;SDS011;38556;47.068;15.408;2022-08-27T10:42:11;257.93;;;244.00;;
1995;SDS011;38556;47.068;15.408;2022-08-27T10:44:47;237.93;;;223.80;;
1995;SDS011;38556;47.068;15.408;2022-08-27T10:47:27;228.53;;;215.13;;
1995;SDS011;38556;47.068;15.408;2022-08-27T10:50:07;234.07;;;220.47;;
1995;SDS011;38556;47.068;15.408;2022-08-27T10:52:44;232.97;;;219.13;;
1995;SDS011;38556;47.068;15.408;2022-08-27T10:55:17;235.17;;;222.07;;
1995;SDS011;38556;47.068;15.408;2022-08-27T10:57:54;217.17;;;203.77;;
1995;SDS011;38556;47.068;15.408;2022-08-27T11:00:44;238.17;;;224.97;;
1995;SDS011;38556;47.068;15.408;2022-08-27T11:03:21;232.83;;;219.47;;
1995;SDS011;38556;47.068;15.408;2022-08-27T11:05:53;226.80;;;213.70;;
1995;SDS011;38556;47.068;15.408;2022-08-27T11:08:25;218.57;;;205.37;;
1995;SDS011;38556;47.068;15.408;2022-08-27T11:11:00;213.77;;;201.10;;
1995;SDS011;38556;47.068;15.408;2022-08-27T11:13:33;210.33;;;198.10;;
1995;SDS011;38556;47.068;15.408;2022-08-27T11:16:07;223.53;;;210.63;;
1995;SDS011;38556;47.068;15.408;2022-08-27T11:18:41;229.37;;;216.07;;
1995;SDS011;38556;47.068;15.408;2022-08-27T11:21:13;233.17;;;219.13;;
1995;SDS011;38556;47.068;15.408;2022-08-27T11:23:46;237.57;;;221.57;;
1995;SDS011;38556;47.068;15.408;2022-08-27T11:26:18;236.67;;;223.37;;
1995;SDS011;38556;47.068;15.408;2022-08-27T11:28:46;236.30;;;223.20;;
1995;SDS011;38556;47.068;15.408;2022-08-27T11:31:18;224.53;;;211.63;;
1995;SDS011;38556;47.068;15.408;2022-08-27T11:33:53;213.87;;;201.67;;
1995;SDS011;38556;47.068;15.408;2022-08-27T11:39:44;224.27;;;211.70;;
1995;SDS011;38556;47.068;15.408;2022-08-27T11:42:22;218.33;;;205.40;;
1995;SDS011;38556;47.068;15.408;2022-08-27T11:45:02;216.93;;;204.53;;
1995;SDS011;38556;47.068;15.408;2022-08-27T11:47:36;225.67;;;213.20;;
1995;SDS011;38556;47.068;15.408;2022-08-27T11:50:05;219.10;;;206.30;;
1995;SDS011;38556;47.068;15.408;2022-08-27T11:52:52;215.50;;;202.77;;
1995;SDS011;38556;47.068;15.408;2022-08-27T11:55:24;208.73;;;196.13;;
1995;SDS011;38556;47.068;15.408;2022-08-27T11:58:04;213.80;;;200.97;;
1995;SDS011;38556;47.068;15.408;2022-08-27T12:00:35;207.03;;;194.93;;
1995;SDS011;38556;47.068;15.408;2022-08-27T12:03:05;200.93;;;188.27;;
1995;SDS011;38556;47.068;15.408;2022-08-27T12:05:36;201.10;;;188.87;;
1995;SDS011;38556;47.068;15.408;2022-08-27T12:08:13;202.03;;;189.93;;
1995;SDS011;38556;47.068;15.408;2022-08-27T12:10:47;203.53;;;191.53;;
1995;SDS011;38556;47.068;15.408;2022-08-27T12:13:27;203.83;;;191.20;;
1995;SDS011;38556;47.068;15.408;2022-08-27T12:16:01;204.10;;;191.60;;
1995;SDS011;38556;47.068;15.408;2022-08-27T12:18:55;202.47;;;190.37;;
1995;SDS011;38556;47.068;15.408;2022-08-27T12:21:43;203.70;;;191.73;;
1995;SDS011;38556;47.068;15.408;2022-08-27T12:24:24;199.60;;;187.67;;
1995;SDS011;38556;47.068;15.408;2022-08-27T12:27:14;220.27;;;207.27;;
1995;SDS011;38556;47.068;15.408;2022-08-27T12:29:51;205.17;;;193.20;;
1995;SDS011;38556;47.068;15.408;2022-08-27T12:32:23;211.83;;;198.73;;
1995;SDS011;38556;47.068;15.408;2022-08-27T12:34:57;222.47;;;208.97;;
1995;SDS011;38556;47.068;15.408;2022-08-27T12:37:34;216.70;;;203.47;;
1995;SDS011;38556;47.068;15.408;2022-08-27T12:40:06;222.30;;;208.90;;
1995;SDS011;38556;47.068;15.408;2022-08-27T12:42:39;227.37;;;213.53;;
1995;SDS011;38556;47.068;15.408;2022-08-27T12:45:07;225.20;;;210.23;;
1995;SDS011;38556;47.068;15.408;2022-08-27T12:47:45;203.37;;;191.17;;
1995;SDS011;38556;47.068;15.408;2022-08-27T12:50:17;208.37;;;195.77;;
1995;SDS011;38556;47.068;15.408;2022-08-27T12:52:58;207.27;;;194.70;;
1995;SDS011;38556;47.068;15.408;2022-08-27T12:55:47;220.43;;;206.77;;
1995;SDS011;38556;47.068;15.408;2022-08-27T12:58:28;203.97;;;191.97;;
1995;SDS011;38556;47.068;15.408;2022-08-27T13:01:10;204.40;;;192.40;;
1995;SDS011;38556;47.068;15.408;2022-08-27T13:03:50;214.10;;;200.57;;
1995;SDS011;38556;47.068;15.408;2022-08-27T13:06:21;225.10;;;212.20;;
1995;SDS011;38556;47.068;15.408;2022-08-27T13:08:54;217.33;;;204.50;;
1995;SDS011;38556;47.068;15.408;2022-08-27T13:11:24;210.13;;;197.13;;
1995;SDS011;38556;47.068;15.408;2022-08-27T13:14:03;199.60;;;186.30;;
1995;SDS011;38556;47.068;15.408;2022-08-27T13:16:33;209.83;;;197.37;;
1995;SDS011;38556;47.068;15.408;2022-08-27T13:19:03;230.17;;;217.33;;
1995;SDS011;38556;47.068;15.408;2022-08-27T13:21:33;220.03;;;207.00;;
1995;SDS011;38556;47.068;15.408;2022-08-27T13:24:02;211.43;;;199.13;;
1995;SDS011;38556;47.068;15.408;2022-08-27T13:26:31;222.53;;;209.93;;
1995;SDS011;38556;47.068;15.408;2022-08-27T13:29:02;221.87;;;208.60;;
1995;SDS011;38556;47.068;15.408;2022-08-27T13:31:31;213.50;;;200.90;;
1995;SDS011;38556;47.068;15.408;2022-08-27T13:34:01;211.03;;;198.87;;
1995;SDS011;38556;47.068;15.408;2022-08-27T13:36:30;220.70;;;208.13;;
1995;SDS011;38556;47.068;15.408;2022-08-27T13:39:02;217.57;;;204.80;;
1995;SDS011;38556;47.068;15.408;2022-08-27T13:41:33;215.63;;;203.20;;
1995;SDS011;38556;47.068;15.408;2022-08-27T13:44:05;220.33;;;207.70;;
1995;SDS011;38556;47.068;15.408;2022-08-27T13:46:40;214.07;;;201.47;;
1995;SDS011;38556;47.068;15.408;2022-08-27T13:49:14;218.70;;;205.93;;
1995;SDS011;38556;47.068;15.408;2022-08-27T13:51:47;208.53;;;195.73;;
1995;SDS011;38556;47.068;15.408;2022-08-27T13:54:24;221.67;;;209.27;;
1995;SDS011;38556;47.068;15.408;2022-08-27T13:56:55;224.10;;;211.00;;
1995;SDS011;38556;47.068;15.408;2022-08-27T13:59:29;224.23;;;211.63;;
1995;SDS011;38556;47.068;15.408;2022-08-27T14:01:58;221.50;;;208.80;;
1995;SDS011;38556;47.068;15.408;2022-08-27T14:04:32;235.07;;;222.23;;
1995;SDS011;38556;47.068;15.408;2022-08-27T14:07:06;238.00;;;225.33;;
1995;SDS011;38556;47.068;15.408;2022-08-27T14:09:41;227.33;;;215.13;;
1995;SDS011;38556;47.068;15.408;2022-08-27T14:12:26;227.30;;;214.70;;
1995;SDS011;38556;47.068;15.408;2022-08-27T14:14:57;223.30;;;210.93;;
1995;SDS011;38556;47.068;15.408;2022-08-27T14:17:37;227.50;;;214.90;;
1995;SDS011;38556;47.068;15.408;2022-08-27T14:20:05;231.03;;;217.93;;
1995;SDS011;38556;47.068;15.408;2022-08-27T14:22:33;229.13;;;215.83;;